Time;durP1;ratioP1;P1;durP2;ratioP2;P2;SDS_P1;SDS_P2;PMS_P1;PMS_P2;Temp;Humidity;BMP_temperature;BMP_pressure;BME280_temperature;BME280_humidity;BME280_pressure;Samples;Min_cycle;Max_cycle;Signal;HPM_P1;HPM_P2
2022/09/25 00:01:10;;;;;;;8.57;1.45;;;11.10;99.90;;;;;;5054038;28;20063;-71
2022/09/25 00:03:39;;;;;;;10.00;1.50;;;11.10;99.90;;;;;;5038022;28;20064;-71
2022/09/25 00:06:16;;;;;;;;;;;11.10;99.90;;;;;;5055145;28;20045;-72
2022/09/25 00:08:44;;;;;;;17.52;1.77;;;11.10;99.90;;;;;;5054206;28;19920;-72
2022/09/25 00:11:18;;;;;;;9.40;1.65;;;11.00;99.90;;;;;;5055194;28;20045;-72
2022/09/25 00:13:46;;;;;;;10.43;1.73;;;11.00;99.90;;;;;;5054861;28;20037;-71
2022/09/25 00:16:16;;;;;;;11.45;2.58;;;11.00;99.90;;;;;;5054033;28;20397;-74
2022/09/25 00:21:32;;;;;;;15.10;2.63;;;10.90;99.90;;;;;;5053768;28;20049;-72
2022/09/25 00:24:08;;;;;;;17.17;3.10;;;10.80;99.90;;;;;;5054700;28;20056;-72
2022/09/25 00:26:39;;;;;;;12.68;2.53;;;10.90;99.90;;;;;;5055086;28;20049;-71
2022/09/25 00:29:08;;;;;;;12.70;3.28;;;10.90;99.90;;;;;;5036137;28;20483;-71
2022/09/25 00:31:35;;;;;;;19.52;2.95;;;11.60;99.90;;;;;;5054581;28;20072;-71
2022/09/25 00:34:04;;;;;;;13.80;2.72;;;10.90;99.90;;;;;;5036479;28;20037;-73
2022/09/25 00:36:32;;;;;;;17.20;3.33;;;10.80;99.90;;;;;;5055048;28;20045;-71
2022/09/25 00:39:00;;;;;;;21.13;3.45;;;10.90;99.90;;;;;;5037341;28;20037;-73
2022/09/25 00:41:30;;;;;;;9.73;2.65;;;10.80;99.90;;;;;;5053591;28;20463;-72
2022/09/25 00:43:59;;;;;;;14.15;3.08;;;10.80;99.90;;;;;;5037728;28;20056;-72
2022/09/25 00:46:30;;;;;;;16.77;3.35;;;10.80;99.90;;;;;;5037163;28;20057;-71
2022/09/25 00:49:33;;;;;;;14.60;3.20;;;10.70;99.90;;;;;;5053865;28;20048;-73
2022/09/25 00:52:12;;;;;;;20.00;3.15;;;10.80;99.90;;;;;;4974218;28;20046;-73
2022/09/25 00:55:05;;;;;;;17.10;3.25;;;10.70;99.90;;;;;;5044459;28;20471;-71
2022/09/25 00:57:37;;;;;;;16.05;3.25;;;10.70;99.90;;;;;;5054563;28;20048;-72
2022/09/25 01:00:10;;;;;;;13.32;3.95;;;10.70;99.90;;;;;;5054667;28;20037;-73
2022/09/25 01:02:42;;;;;;;22.88;4.25;;;10.70;99.90;;;;;;5035892;28;20052;-73
2022/09/25 01:05:17;;;;;;;16.50;3.78;;;10.60;99.90;;;;;;5054907;28;20049;-73
2022/09/25 01:07:48;;;;;;;14.95;3.03;;;10.60;99.90;;;;;;5035879;28;20060;-72
2022/09/25 01:10:18;;;;;;;17.73;3.30;;;10.60;99.90;;;;;;5054432;28;20045;-72
2022/09/25 01:12:47;;;;;;;21.80;3.17;;;10.50;99.90;;;;;;5054344;28;20041;-72
2022/09/25 01:15:18;;;;;;;18.52;3.65;;;10.40;99.90;;;;;;5035947;28;20049;-73
2022/09/25 01:18:22;;;;;;;18.70;3.40;;;10.30;99.90;;;;;;5038166;28;20371;-72
2022/09/25 01:21:19;;;;;;;19.58;3.63;;;10.30;99.90;;;;;;5057146;28;20685;-72
2022/09/25 01:23:58;;;;;;;17.50;3.72;;;10.20;99.90;;;;;;5028393;28;20388;-73
2022/09/25 01:27:05;;;;;;;21.33;4.00;;;10.20;99.90;;;;;;5058283;28;20044;-72
2022/09/25 01:29:43;;;;;;;19.27;3.83;;;10.10;99.90;;;;;;5039347;28;20387;-72
2022/09/25 01:32:22;;;;;;;13.82;3.42;;;10.00;99.90;;;;;;5040757;28;20041;-72
2022/09/25 01:35:04;;;;;;;22.85;3.75;;;10.00;99.90;;;;;;5057055;28;20056;-72
2022/09/25 01:37:58;;;;;;;17.45;3.45;;;10.00;99.90;;;;;;5057953;28;20044;-72
2022/09/25 01:40:33;;;;;;;16.48;3.35;;;10.00;99.90;;;;;;5057795;28;20044;-73
2022/09/25 01:43:25;;;;;;;19.73;3.33;;;10.00;99.90;;;;;;5058038;28;20048;-73
2022/09/25 01:45:57;;;;;;;15.38;3.00;;;10.00;99.90;;;;;;5057739;28;20045;-72
2022/09/25 01:48:29;;;;;;;18.60;3.33;;;10.00;99.90;;;;;;5039528;28;20045;-72
2022/09/25 01:50:59;;;;;;;14.52;2.80;;;9.90;99.90;;;;;;5040613;28;20044;-72
2022/09/25 01:53:39;;;;;;;20.38;2.90;;;11.50;99.90;;;;;;5040766;28;20055;-72
2022/09/25 01:56:22;;;;;;;14.23;3.67;;;9.90;99.90;;;;;;5056380;28;20387;-73
2022/09/25 01:58:55;;;;;;;12.55;2.60;;;9.90;99.90;;;;;;5058272;28;20056;-72
2022/09/25 02:01:28;;;;;;;15.48;2.58;;;10.20;99.90;;;;;;5056676;28;20048;-73
2022/09/25 02:04:07;;;;;;;23.65;2.80;;;9.80;99.90;;;;;;5058010;28;20056;-72
2022/09/25 02:06:39;;;;;;;15.45;3.70;;;9.90;99.90;;;;;;5040014;28;20049;-72
2022/09/25 02:09:20;;;;;;;20.48;3.28;;;9.90;99.90;;;;;;5039016;28;20052;-72
2022/09/25 02:11:53;;;;;;;16.92;3.55;;;9.90;99.90;;;;;;5057526;28;20041;-72
2022/09/25 02:14:38;;;;;;;11.90;2.95;;;9.60;99.90;;;;;;5022677;28;20041;-72
2022/09/25 02:17:09;;;;;;;21.20;3.13;;;9.90;99.90;;;;;;5057443;28;20048;-72
2022/09/25 02:22:33;;;;;;;19.73;2.97;;;10.00;99.90;;;;;;5056192;28;20041;-72
2022/09/25 02:25:16;;;;;;;21.63;3.08;;;9.90;99.90;;;;;;5057343;28;20380;-72
2022/09/25 02:27:45;;;;;;;19.63;2.85;;;9.90;99.90;;;;;;5055978;28;20045;-72
2022/09/25 02:30:12;;;;;;;17.73;2.90;;;9.80;99.90;;;;;;5057342;28;20056;-73
2022/09/25 02:32:40;;;;;;;16.48;2.88;;;9.90;99.90;;;;;;5056835;28;20486;-72
2022/09/25 02:35:08;;;;;;;12.65;2.75;;;;;;;;;;5055970;28;20041;-72
2022/09/25 02:37:36;;;;;;;;;;;9.70;99.90;;;;;;5057715;28;20041;-72
2022/09/25 02:40:04;;;;;;;15.85;2.92;;;9.70;99.90;;;;;;5057000;28;19925;-72
2022/09/25 02:42:32;;;;;;;18.20;3.08;;;;;;;;;;5038224;28;20483;-72
2022/09/25 02:45:05;;;;;;;22.05;3.03;;;9.60;99.90;;;;;;5039857;28;20049;-72
2022/09/25 02:47:33;;;;;;;18.38;3.08;;;;;;;;;;5055772;28;20498;-72
2022/09/25 02:50:04;;;;;;;18.65;3.45;;;;;;;;;;5056707;28;20057;-72
2022/09/25 02:52:56;;;;;;;18.45;3.20;;;9.80;99.90;;;;;;5039054;28;20053;-72
2022/09/25 02:55:33;;;;;;;19.63;3.67;;;9.40;99.90;;;;;;5055369;28;20475;-72
2022/09/25 02:58:00;;;;;;;19.25;3.65;;;9.00;99.90;;;;;;5056827;28;20045;-72
2022/09/25 03:00:29;;;;;;;22.90;3.28;;;9.10;99.90;;;;;;5038975;28;20045;-72
2022/09/25 03:02:58;;;;;;;28.30;3.60;;;9.30;99.90;;;;;;5039161;28;20380;-72
2022/09/25 03:05:27;;;;;;;16.55;3.50;;;;;;;;;;5038824;28;20049;-72
2022/09/25 03:10:44;;;;;;;16.88;3.55;;;9.10;99.90;;;;;;5056363;28;20056;-72
2022/09/25 03:13:18;;;;;;;24.75;4.10;;;9.00;99.90;;;;;;5056373;28;20045;-72
2022/09/25 03:15:51;;;;;;;16.80;3.75;;;9.00;99.90;;;;;;5037344;28;20056;-72
2022/09/25 03:18:19;;;;;;;19.45;3.60;;;9.00;99.90;;;;;;5056468;28;20045;-72
2022/09/25 03:20:46;;;;;;;19.00;3.88;;;9.10;99.90;;;;;;5055089;28;20064;-73
2022/09/25 03:23:14;;;;;;;18.35;4.15;;;9.00;99.90;;;;;;5056300;28;20360;-72
2022/09/25 03:25:42;;;;;;;14.73;3.22;;;9.40;99.90;;;;;;5038468;28;20053;-72
2022/09/25 03:28:17;;;;;;;22.50;3.88;;;;;;;;;;5054793;28;20049;-73
2022/09/25 03:31:02;;;;;;;23.58;3.78;;;9.00;99.90;;;;;;5055771;28;20468;-73
2022/09/25 03:33:38;;;;;;;16.40;3.70;;;9.10;99.90;;;;;;5055600;28;20064;-73
2022/09/25 03:36:17;;;;;;;18.00;3.65;;;9.00;99.90;;;;;;5054569;28;20506;-73
2022/09/25 03:38:48;;;;;;;19.25;3.78;;;9.00;99.90;;;;;;5055482;28;20041;-73
2022/09/25 03:41:19;;;;;;;15.18;3.65;;;8.90;99.90;;;;;;5054222;28;20368;-73
2022/09/25 03:43:50;;;;;;;20.52;3.55;;;8.90;99.90;;;;;;5055688;28;20048;-72
2022/09/25 03:46:20;;;;;;;21.63;3.97;;;8.60;99.90;;;;;;5038331;28;20044;-73
2022/09/25 03:48:48;;;;;;;17.27;3.83;;;7.70;99.90;;;;;;5037120;28;20049;-72
2022/09/25 03:51:17;;;;;;;21.13;4.13;;;8.90;99.90;;;;;;5055425;28;20045;-72
2022/09/25 03:53:46;;;;;;;22.50;4.38;;;8.70;99.90;;;;;;5055875;28;20383;-72
2022/09/25 03:56:16;;;;;;;24.08;4.38;;;8.60;99.90;;;;;;5053933;28;20415;-72
2022/09/25 03:58:45;;;;;;;18.20;4.13;;;9.10;99.90;;;;;;5055557;28;20056;-72
2022/09/25 04:01:13;;;;;;;15.30;3.90;;;8.70;99.90;;;;;;5054258;28;20045;-72
2022/09/25 04:03:45;;;;;;;26.85;4.45;;;8.90;99.90;;;;;;5037562;28;20057;-72
2022/09/25 04:06:17;;;;;;;28.10;5.05;;;8.70;99.90;;;;;;5055444;28;20045;-72
2022/09/25 04:08:46;;;;;;;16.42;4.18;;;8.70;99.90;;;;;;5036449;28;20479;-72
2022/09/25 04:11:15;;;;;;;31.35;4.57;;;8.70;99.90;;;;;;5053599;28;20048;-72
2022/09/25 04:13:43;;;;;;;21.33;4.63;;;;;;;;;;5017692;28;20364;-72
2022/09/25 04:16:13;;;;;;;19.48;4.55;;;8.80;99.90;;;;;;5033850;28;20053;-72
2022/09/25 04:18:41;;;;;;;24.55;4.93;;;8.50;99.90;;;;;;5035178;28;20052;-72
2022/09/25 04:21:11;;;;;;;22.13;5.20;;;8.20;99.90;;;;;;5034320;28;20041;-72
2022/09/25 04:23:39;;;;;;;15.02;4.60;;;;;;;;;;5035010;28;20060;-72
2022/09/25 04:26:07;;;;;;;;;;;8.50;99.90;;;;;;5035462;28;20053;-72
2022/09/25 04:28:36;;;;;;;24.55;4.60;;;8.50;99.90;;;;;;5033760;28;20343;-72
2022/09/25 04:31:04;;;;;;;22.20;5.18;;;;;;;;;;5034843;28;20061;-72
2022/09/25 04:33:46;;;;;;;21.13;4.38;;;8.40;99.90;;;;;;5018063;28;20042;-72
2022/09/25 04:36:16;;;;;;;16.42;4.57;;;8.50;99.90;;;;;;5033647;28;20050;-72
2022/09/25 04:38:43;;;;;;;16.85;4.95;;;10.30;99.90;;;;;;5017365;28;20384;-72
2022/09/25 04:41:11;;;;;;;20.40;5.05;;;8.40;99.90;;;;;;5033770;28;20042;-72
2022/09/25 04:43:40;;;;;;;24.88;4.28;;;8.40;99.90;;;;;;5001303;28;20050;-72
2022/09/25 04:46:09;;;;;;;28.55;5.53;;;11.20;99.90;;;;;;5034661;28;20057;-72
2022/09/25 04:48:44;;;;;;;20.95;4.15;;;6.40;99.90;;;;;;5033688;28;20056;-72
2022/09/25 04:51:12;;;;;;;16.33;4.50;;;8.10;99.90;;;;;;5017576;28;20045;-72
2022/09/25 04:53:40;;;;;;;23.77;4.38;;;;;;;;;;5038717;28;20375;-73
2022/09/25 04:56:10;;;;;;;26.55;4.47;;;8.50;99.90;;;;;;5037555;28;20064;-72
2022/09/25 04:58:47;;;;;;;26.45;4.80;;;9.10;99.90;;;;;;5039143;28;20056;-72
2022/09/25 05:01:16;;;;;;;21.65;4.70;;;8.60;99.90;;;;;;5037749;28;20065;-72
2022/09/25 05:03:51;;;;;;;18.63;4.40;;;8.20;99.90;;;;;;5038848;28;20060;-72
2022/09/25 05:06:19;;;;;;;20.25;4.85;;;8.20;99.90;;;;;;5038736;28;20045;-72
2022/09/25 05:08:48;;;;;;;25.13;5.43;;;8.20;99.90;;;;;;5037622;28;20048;-72
2022/09/25 05:11:16;;;;;;;27.65;5.40;;;8.20;99.90;;;;;;5004995;28;20049;-72
2022/09/25 05:13:45;;;;;;;15.68;4.97;;;8.20;99.90;;;;;;5038539;28;20519;-72
2022/09/25 05:16:12;;;;;;;19.00;4.70;;;8.40;99.90;;;;;;5037414;28;20041;-72
2022/09/25 05:18:40;;;;;;;22.13;4.78;;;8.50;99.90;;;;;;5038042;28;20042;-73
2022/09/25 05:21:08;;;;;;;17.35;4.97;;;;;;;;;;5037560;28;20048;-72
2022/09/25 05:23:36;;;;;;;15.48;4.75;;;;;;;;;;5037696;28;20053;-72
2022/09/25 05:26:03;;;;;;;19.92;4.68;;;8.20;99.90;;;;;;5004535;28;20060;-72
2022/09/25 05:28:32;;;;;;;20.88;5.28;;;8.30;99.90;;;;;;5003548;28;20076;-72
2022/09/25 05:31:02;;;;;;;22.55;5.28;;;8.20;99.90;;;;;;5037982;28;20041;-72
2022/09/25 05:33:31;;;;;;;25.92;5.40;;;8.00;99.90;;;;;;5038025;28;20045;-72
2022/09/25 05:36:04;;;;;;;23.98;5.13;;;7.90;99.90;;;;;;5036923;28;20046;-72
2022/09/25 05:38:33;;;;;;;22.40;4.97;;;8.00;99.90;;;;;;5020956;28;20049;-72
2022/09/25 05:41:05;;;;;;;23.58;5.20;;;7.70;99.90;;;;;;5036762;28;20045;-72
2022/09/25 05:43:38;;;;;;;21.40;4.97;;;8.00;99.90;;;;;;5037901;28;20045;-72
2022/09/25 05:46:07;;;;;;;19.73;5.10;;;;;;;;;;5020741;28;20041;-72
2022/09/25 05:48:34;;;;;;;28.42;5.75;;;8.00;99.90;;;;;;5036599;28;20050;-73
2022/09/25 05:51:03;;;;;;;22.42;5.50;;;;;;;;;;5037693;28;20049;-73
2022/09/25 05:53:30;;;;;;;24.55;5.18;;;7.50;99.90;;;;;;4988052;28;20473;-72
2022/09/25 05:56:00;;;;;;;20.35;5.55;;;8.00;99.90;;;;;;5002697;28;20064;-72
2022/09/25 05:58:29;;;;;;;22.88;5.72;;;8.00;99.90;;;;;;5038204;28;20046;-72
2022/09/25 06:01:02;;;;;;;19.00;4.97;;;8.40;99.90;;;;;;5036968;28;20045;-72
2022/09/25 06:03:30;;;;;;;25.98;5.20;;;8.00;99.90;;;;;;5037412;28;20049;-72
2022/09/25 06:05:59;;;;;;;19.52;4.85;;;7.90;99.90;;;;;;5020131;28;20064;-73
2022/09/25 06:08:29;;;;;;;19.85;5.40;;;8.00;99.90;;;;;;5036299;28;20053;-72
2022/09/25 06:11:00;;;;;;;16.90;4.95;;;7.90;99.90;;;;;;5019987;28;20046;-72
2022/09/25 06:13:30;;;;;;;19.52;5.03;;;;;;;;;;5019904;28;20380;-72
2022/09/25 06:15:58;;;;;;;17.90;5.30;;;7.90;99.90;;;;;;5036342;28;20049;-72
2022/09/25 06:18:26;;;;;;;17.92;4.95;;;7.70;99.90;;;;;;5037316;28;20045;-72
2022/09/25 06:21:01;;;;;;;;;;;7.80;99.90;;;;;;5019471;28;20037;-72
2022/09/25 06:23:29;;;;;;;20.15;4.88;;;7.90;99.90;;;;;;5037757;28;19921;-72
2022/09/25 06:26:01;;;;;;;21.10;5.63;;;10.70;99.90;;;;;;5019633;28;20049;-72
2022/09/25 06:28:29;;;;;;;23.75;5.43;;;7.90;99.90;;;;;;5036331;28;20065;-72
2022/09/25 06:31:00;;;;;;;;;;;7.90;99.90;;;;;;5037473;28;20049;-72
2022/09/25 06:33:31;;;;;;;24.23;5.00;;;7.90;99.90;;;;;;5019889;28;19921;-72
2022/09/25 06:35:59;;;;;;;23.15;5.47;;;10.50;99.90;;;;;;5018819;28;20060;-72
2022/09/25 06:38:27;;;;;;;;;;;8.40;99.90;;;;;;5037796;28;20050;-72
2022/09/25 06:40:55;;;;;;;19.75;5.88;;;8.20;99.90;;;;;;5035762;28;19921;-73
2022/09/25 06:43:26;;;;;;;22.98;5.07;;;8.00;99.90;;;;;;5037083;28;20057;-73
2022/09/25 06:45:54;;;;;;;;;;;8.00;99.90;;;;;;5037173;28;20052;-72
2022/09/25 06:48:21;;;;;;;23.50;5.18;;;8.00;99.90;;;;;;5018326;28;19928;-72
2022/09/25 06:50:51;;;;;;;21.77;5.07;;;8.10;99.90;;;;;;5036534;28;20052;-73
2022/09/25 06:53:20;;;;;;;25.42;5.25;;;8.20;99.90;;;;;;5019244;28;20048;-73
2022/09/25 06:55:48;;;;;;;24.25;5.07;;;10.00;99.90;;;;;;4998597;28;20121;-72
2022/09/25 06:58:19;;;;;;;22.13;4.88;;;8.30;99.90;;;;;;5016765;28;20042;-73
2022/09/25 07:00:48;;;;;;;21.17;4.85;;;8.50;99.90;;;;;;5015535;28;20046;-72
2022/09/25 07:06:04;;;;;;;25.88;4.55;;;8.50;99.90;;;;;;5016876;28;20064;-72
2022/09/25 07:08:32;;;;;;;19.45;4.40;;;8.60;99.90;;;;;;5015817;28;20358;-72
2022/09/25 07:11:00;;;;;;;21.27;4.05;;;8.60;99.90;;;;;;5015717;28;20054;-72
2022/09/25 07:13:30;;;;;;;17.83;4.13;;;8.80;99.90;;;;;;5016718;28;20049;-72
2022/09/25 07:16:13;;;;;;;21.50;4.15;;;8.70;99.90;;;;;;5013459;28;20061;-72
2022/09/25 07:18:42;;;;;;;23.00;3.97;;;8.70;99.90;;;;;;5016321;28;20049;-73
2022/09/25 07:21:12;;;;;;;13.65;3.20;;;8.80;99.90;;;;;;5015554;28;20042;-72
2022/09/25 07:23:41;;;;;;;17.83;3.72;;;10.40;99.90;;;;;;5016432;28;20470;-72
2022/09/25 07:26:15;;;;;;;22.73;3.40;;;8.90;99.90;;;;;;5016354;28;20368;-72
2022/09/25 07:28:43;;;;;;;22.25;3.50;;;9.00;99.90;;;;;;5014403;28;20050;-72
2022/09/25 07:31:16;;;;;;;;;;;9.10;99.90;;;;;;5016563;28;20065;-72
2022/09/25 07:33:45;;;;;;;22.33;3.28;;;9.10;99.90;;;;;;5015939;28;20276;-72
2022/09/25 07:36:13;;;;;;;19.23;3.20;;;9.20;99.90;;;;;;5015098;28;20046;-72
2022/09/25 07:38:41;;;;;;;13.25;2.90;;;9.20;99.90;;;;;;5015509;28;20377;-72
2022/09/25 07:41:10;;;;;;;17.40;3.08;;;9.20;99.90;;;;;;5014492;28;20384;-72
2022/09/25 07:43:38;;;;;;;16.60;3.10;;;9.30;99.90;;;;;;5014692;28;20069;-73
2022/09/25 07:46:06;;;;;;;12.32;2.83;;;9.30;99.90;;;;;;5015600;28;20624;-72
2022/09/25 07:48:34;;;;;;;16.77;2.85;;;9.40;99.90;;;;;;5013583;28;20065;-73
2022/09/25 07:51:03;;;;;;;9.57;2.33;;;8.50;99.90;;;;;;5014987;28;20052;-73
2022/09/25 07:53:31;;;;;;;13.57;2.80;;;;;;;;;;5015100;28;20390;-72
2022/09/25 07:56:00;;;;;;;15.80;2.65;;;9.50;99.90;;;;;;5023134;28;20042;-73
2022/09/25 07:58:36;;;;;;;15.52;2.42;;;9.60;99.90;;;;;;5035056;28;20034;-73
2022/09/25 08:01:07;;;;;;;15.10;2.70;;;9.70;99.90;;;;;;5016596;28;20049;-73
2022/09/25 08:03:34;;;;;;;16.23;2.33;;;9.80;99.90;;;;;;5035028;28;20049;-73
2022/09/25 08:06:12;;;;;;;13.95;2.67;;;9.80;99.90;;;;;;5034894;28;20495;-73
2022/09/25 08:08:41;;;;;;;10.98;2.25;;;9.90;99.90;;;;;;4999982;28;20041;-73
2022/09/25 08:11:13;;;;;;;14.50;2.58;;;9.90;99.90;;;;;;5034830;28;20045;-73
2022/09/25 08:13:41;;;;;;;13.88;2.42;;;;;;;;;;5001110;28;20053;-73
2022/09/25 08:16:12;;;;;;;;;;;10.10;99.90;;;;;;5016957;28;20463;-72
2022/09/25 08:18:44;;;;;;;15.00;1.83;;;10.10;99.90;;;;;;5017376;28;19921;-73
2022/09/25 08:21:14;;;;;;;16.83;2.28;;;10.20;99.90;;;;;;5033834;28;20049;-73
2022/09/25 08:23:43;;;;;;;14.82;2.00;;;10.20;99.90;;;;;;5034655;28;20052;-73
2022/09/25 08:26:19;;;;;;;15.90;2.10;;;10.30;99.90;;;;;;5016791;28;20072;-73
2022/09/25 08:28:47;;;;;;;12.10;2.30;;;10.40;99.90;;;;;;5016452;28;20048;-74
2022/09/25 08:31:16;;;;;;;13.07;2.03;;;12.30;99.90;;;;;;5053636;28;20045;-73
2022/09/25 08:33:45;;;;;;;13.43;1.70;;;10.60;99.90;;;;;;5037020;28;20364;-73
2022/09/25 08:36:14;;;;;;;8.57;1.55;;;10.50;99.90;;;;;;5035990;28;20041;-73
2022/09/25 08:38:43;;;;;;;10.55;2.00;;;10.60;99.90;;;;;;5054513;28;20456;-73
2022/09/25 08:41:16;;;;;;;12.88;2.22;;;10.70;99.90;;;;;;5053264;28;20059;-73
2022/09/25 08:43:51;;;;;;;8.57;1.60;;;10.80;99.90;;;;;;5037374;28;20052;-73
2022/09/25 08:49:25;;;;;;;12.13;1.90;;;10.90;99.90;;;;;;5052906;28;20041;-73
2022/09/25 08:51:58;;;;;;;8.80;1.50;;;11.00;99.90;;;;;;5054931;28;20048;-73
2022/09/25 08:54:29;;;;;;;11.52;1.80;;;11.50;99.90;;;;;;5053305;28;20049;-73
2022/09/25 08:57:39;;;;;;;11.55;1.88;;;11.20;99.90;;;;;;5036876;28;20056;-73
2022/09/25 09:00:11;;;;;;;9.48;1.67;;;11.30;99.90;;;;;;5054164;28;20044;-73
2022/09/25 09:02:42;;;;;;;11.93;1.75;;;11.30;99.90;;;;;;5053241;28;20045;-73
2022/09/25 09:05:26;;;;;;;10.30;1.85;;;11.40;99.90;;;;;;5037051;28;20361;-73
2022/09/25 09:08:00;;;;;;;11.25;1.80;;;11.40;99.90;;;;;;5053412;28;20068;-73
2022/09/25 09:10:42;;;;;;;15.35;2.08;;;11.50;99.90;;;;;;5054386;28;20373;-73
2022/09/25 09:13:16;;;;;;;9.88;1.58;;;12.50;99.90;;;;;;5037369;28;20048;-73
2022/09/25 09:15:54;;;;;;;10.65;1.90;;;11.60;99.90;;;;;;5053997;28;20053;-73
2022/09/25 09:18:26;;;;;;;;;;;11.60;99.90;;;;;;5020977;28;20388;-73
2022/09/25 09:20:57;;;;;;;7.50;1.58;;;11.70;99.90;;;;;;5053545;28;20271;-73
2022/09/25 09:23:35;;;;;;;9.63;1.52;;;11.80;99.90;;;;;;5054200;28;20049;-73
2022/09/25 09:26:13;;;;;;;;;;;11.80;99.90;;;;;;5054753;28;20048;-73
2022/09/25 09:28:58;;;;;;;;;;;11.90;99.90;;;;;;5036236;28;19932;-73
2022/09/25 09:31:45;;;;;;;11.98;1.73;;;12.00;99.90;;;;;;5054412;28;19924;-73
2022/09/25 09:34:38;;;;;;;11.38;1.48;;;12.10;99.90;;;;;;5053572;28;20056;-73
2022/09/25 09:37:43;;;;;;;10.18;1.80;;;12.10;99.90;;;;;;5053548;28;20052;-73
2022/09/25 09:40:23;;;;;;;6.75;1.20;;;12.20;99.90;;;;;;5057678;28;20052;-73
2022/09/25 09:43:18;;;;;;;12.18;1.77;;;12.30;99.90;;;;;;5023024;28;20471;-73
2022/09/25 09:45:53;;;;;;;8.73;1.40;;;12.40;99.90;;;;;;5018005;28;20049;-73
2022/09/25 09:48:33;;;;;;;9.57;1.40;;;12.60;99.90;;;;;;5057045;28;20045;-76
2022/09/25 09:51:17;;;;;;;10.20;1.40;;;12.70;99.90;;;;;;5040627;28;20056;-72
2022/09/25 09:53:53;;;;;;;10.73;1.63;;;12.80;99.90;;;;;;5040414;28;20048;-73
2022/09/25 09:56:31;;;;;;;11.02;1.45;;;12.90;99.90;;;;;;5057486;28;20044;-74
2022/09/25 09:59:05;;;;;;;11.77;1.40;;;13.00;99.90;;;;;;5057504;28;20045;-73
2022/09/25 10:01:38;;;;;;;11.68;1.75;;;13.20;99.90;;;;;;5056833;28;20365;-73
2022/09/25 10:04:13;;;;;;;9.13;1.38;;;13.20;99.90;;;;;;5040541;28;20356;-73
2022/09/25 10:07:12;;;;;;;8.10;1.38;;;13.30;99.90;;;;;;5040365;28;20053;-73
2022/09/25 10:09:40;;;;;;;7.53;1.50;;;13.30;99.90;;;;;;5054082;28;20082;-73
2022/09/25 10:12:31;;;;;;;9.20;1.25;;;13.30;99.90;;;;;;5057422;28;20455;-72
2022/09/25 10:15:03;;;;;;;9.25;1.63;;;13.30;99.90;;;;;;5056506;28;20053;-73
2022/09/25 10:17:32;;;;;;;9.10;1.13;;;13.40;99.90;;;;;;5040020;28;20052;-73
2022/09/25 10:20:11;;;;;;;7.40;1.15;;;13.40;99.90;;;;;;5057396;28;20044;-73
2022/09/25 10:22:45;;;;;;;8.70;1.08;;;13.60;99.90;;;;;;5040423;28;20053;-73
2022/09/25 10:25:13;;;;;;;5.45;0.98;;;13.40;98.50;;;;;;5057412;28;20060;-73
2022/09/25 10:27:46;;;;;;;8.02;1.10;;;13.80;97.30;;;;;;5056293;28;20053;-73
2022/09/25 10:30:20;;;;;;;6.13;0.80;;;14.00;97.20;;;;;;5039864;28;20049;-73
2022/09/25 10:33:00;;;;;;;7.57;1.70;;;14.40;97.60;;;;;;5056863;28;20067;-73
2022/09/25 10:35:28;;;;;;;7.45;1.10;;;;;;;;;;5038838;28;20048;-73
2022/09/25 10:37:59;;;;;;;6.03;1.02;;;14.20;94.60;;;;;;5057447;28;20452;-72
2022/09/25 10:40:32;;;;;;;4.78;0.90;;;14.30;95.40;;;;;;5057043;28;20467;-73
2022/09/25 10:43:15;;;;;;;5.30;1.10;;;14.30;95.50;;;;;;5023127;28;20052;-72
2022/09/25 10:45:43;;;;;;;6.75;1.00;;;;;;;;;;5056628;28;20049;-73
2022/09/25 10:51:10;;;;;;;6.72;1.20;;;14.30;94.40;;;;;;5039769;28;20048;-72
2022/09/25 10:53:38;;;;;;;5.82;1.10;;;14.40;94.20;;;;;;5039268;28;20498;-75
2022/09/25 10:56:11;;;;;;;5.38;1.10;;;14.40;93.40;;;;;;5055386;28;20037;-72
2022/09/25 10:58:56;;;;;;;5.38;0.90;;;14.30;93.60;;;;;;5056973;28;20051;-72
2022/09/25 11:01:41;;;;;;;9.90;1.20;;;14.40;93.50;;;;;;5055263;28;20056;-72
2022/09/25 11:04:21;;;;;;;5.47;1.05;;;14.40;92.70;;;;;;5038836;28;20041;-72
2022/09/25 11:06:52;;;;;;;7.90;1.08;;;14.50;92.70;;;;;;5039304;28;20045;-72
2022/09/25 11:09:24;;;;;;;10.80;1.30;;;15.00;92.90;;;;;;5055259;28;20376;-72
2022/09/25 11:12:03;;;;;;;9.75;1.10;;;14.90;93.30;;;;;;5038491;28;20060;-71
2022/09/25 11:14:34;;;;;;;3.45;0.82;;;15.20;92.90;;;;;;5037668;28;20045;-71
2022/09/25 11:17:05;;;;;;;8.27;1.30;;;15.60;91.00;;;;;;5038701;28;20049;-72
2022/09/25 11:19:35;;;;;;;8.63;1.20;;;15.60;91.20;;;;;;5056091;28;20068;-72
2022/09/25 11:22:24;;;;;;;5.10;1.17;;;15.60;91.40;;;;;;5037751;28;20049;-71
2022/09/25 11:25:10;;;;;;;7.35;1.30;;;15.40;92.70;;;;;;5038555;28;20052;-72
2022/09/25 11:28:05;;;;;;;5.78;1.00;;;15.30;90.70;;;;;;5035032;28;20048;-73
2022/09/25 11:30:53;;;;;;;7.18;1.23;;;15.20;90.70;;;;;;5011668;28;20476;-73
2022/09/25 11:33:24;;;;;;;;;;;15.20;91.00;;;;;;5018772;28;20052;-73
2022/09/25 11:36:11;;;;;;;6.22;0.90;;;15.10;90.50;;;;;;5039807;28;19921;-73
2022/09/25 11:41:39;;;;;;;7.15;0.93;;;15.40;92.10;;;;;;5034694;28;20057;-74
2022/09/25 11:44:10;;;;;;;7.82;1.15;;;15.30;91.80;;;;;;5045819;28;20037;-70
2022/09/25 11:46:55;;;;;;;5.80;1.38;;;15.80;93.20;;;;;;5035061;28;20053;-72
2022/09/25 11:49:27;;;;;;;6.25;1.10;;;15.60;90.80;;;;;;5034352;28;20045;-71
2022/09/25 11:52:10;;;;;;;5.65;1.13;;;16.30;91.60;;;;;;5042067;28;20059;-73
2022/09/25 11:54:59;;;;;;;3.10;0.70;;;15.80;90.50;;;;;;5020764;28;20049;-73
2022/09/25 11:57:53;;;;;;;5.82;0.85;;;16.30;92.50;;;;;;5055365;28;20048;-73
2022/09/25 12:00:22;;;;;;;2.67;0.73;;;;;;;;;;5055733;28;20045;-73
2022/09/25 12:03:12;;;;;;;4.75;0.77;;;16.30;90.60;;;;;;5052310;28;20041;-72
2022/09/25 12:05:41;;;;;;;2.63;0.88;;;;;;;;;;5034026;28;20486;-74
2022/09/25 12:08:23;;;;;;;7.80;1.10;;;16.40;85.80;;;;;;5033494;28;20064;-74
2022/09/25 12:10:52;;;;;;;5.97;0.88;;;;;;;;;;5017887;28;20050;-73
2022/09/25 12:13:53;;;;;;;4.35;1.08;;;16.40;86.60;;;;;;5034483;28;20050;-71
2022/09/25 12:16:22;;;;;;;4.32;0.90;;;16.60;84.60;;;;;;5034932;28;20068;-73
2022/09/25 12:18:50;;;;;;;5.85;1.00;;;;;;;;;;5035047;28;20064;-72
2022/09/25 12:21:32;;;;;;;2.72;0.70;;;16.70;85.90;;;;;;5016700;28;20049;-72
2022/09/25 12:24:13;;;;;;;3.47;0.88;;;16.40;83.10;;;;;;5035120;28;20049;-72
2022/09/25 12:27:05;;;;;;;4.20;0.85;;;16.10;86.90;;;;;;5001899;28;20045;-72
2022/09/25 12:30:07;;;;;;;5.55;1.00;;;16.40;87.50;;;;;;5033878;28;20056;-72
2022/09/25 12:33:01;;;;;;;6.28;0.80;;;16.50;82.70;;;;;;5004706;28;20056;-73
2022/09/25 12:35:46;;;;;;;6.15;0.90;;;16.70;83.30;;;;;;5016688;28;20049;-72
2022/09/25 12:38:42;;;;;;;3.30;0.80;;;17.00;85.40;;;;;;5034737;28;20453;-73
2022/09/25 12:41:28;;;;;;;6.07;0.95;;;17.10;82.50;;;;;;5035616;28;20054;-72
2022/09/25 12:44:06;;;;;;;4.13;0.88;;;17.50;91.00;;;;;;5035092;28;20056;-72
2022/09/25 12:46:43;;;;;;;5.45;0.90;;;17.60;81.80;;;;;;5037234;28;20063;-73
2022/09/25 12:49:17;;;;;;;6.63;0.90;;;17.60;82.30;;;;;;5053643;28;20057;-72
2022/09/25 12:51:49;;;;;;;5.53;0.90;;;17.80;80.70;;;;;;5054903;28;20052;-72
2022/09/25 12:54:27;;;;;;;5.13;1.10;;;17.90;79.80;;;;;;5053546;28;20053;-72
2022/09/25 12:57:22;;;;;;;3.87;0.80;;;17.90;79.00;;;;;;5054206;28;20060;-72
2022/09/25 13:00:03;;;;;;;4.63;1.00;;;17.90;79.30;;;;;;5054293;28;20278;-72
2022/09/25 13:02:58;;;;;;;7.80;0.93;;;18.00;76.30;;;;;;5053251;28;20045;-72
2022/09/25 13:05:29;;;;;;;6.35;1.10;;;18.00;77.40;;;;;;5037079;28;20049;-72
2022/09/25 13:08:02;;;;;;;3.97;1.00;;;18.10;78.50;;;;;;5036626;28;20036;-73
2022/09/25 13:10:55;;;;;;;5.00;0.90;;;18.30;78.00;;;;;;5054580;28;20472;-72
2022/09/25 13:13:26;;;;;;;5.75;0.95;;;18.30;78.10;;;;;;5054466;28;20056;-72
2022/09/25 13:15:59;;;;;;;4.35;0.88;;;18.30;78.30;;;;;;5057135;28;20048;-73
2022/09/25 13:18:28;;;;;;;8.95;1.05;;;18.30;77.50;;;;;;5058615;28;20037;-72
2022/09/25 13:21:00;;;;;;;3.13;0.75;;;18.30;75.20;;;;;;5056569;28;20067;-72
2022/09/25 13:23:34;;;;;;;7.35;1.17;;;18.20;76.30;;;;;;5040917;28;20068;-73
2022/09/25 13:26:11;;;;;;;4.82;1.10;;;18.10;76.30;;;;;;5049068;28;20044;-73
2022/09/25 13:29:00;;;;;;;7.70;1.83;;;18.10;76.30;;;;;;5056480;28;20049;-72
2022/09/25 13:31:33;;;;;;;3.63;1.02;;;18.10;76.40;;;;;;5052353;28;20045;-72
2022/09/25 13:34:11;;;;;;;3.15;0.80;;;18.10;76.10;;;;;;5056611;28;20056;-71
2022/09/25 13:36:57;;;;;;;4.82;0.85;;;18.20;75.70;;;;;;5046990;28;20045;-72
2022/09/25 13:42:34;;;;;;;3.22;1.00;;;18.20;73.70;;;;;;5039714;28;20139;-72
2022/09/25 13:45:20;;;;;;;3.38;0.80;;;18.00;74.80;;;;;;5021286;28;20054;-71
2022/09/25 13:48:11;;;;;;;6.15;1.50;;;18.00;75.20;;;;;;5036669;28;20060;-72
2022/09/25 13:50:41;;;;;;;7.95;1.50;;;17.80;75.20;;;;;;5038113;28;20060;-72
2022/09/25 13:53:19;;;;;;;5.68;1.08;;;17.70;75.80;;;;;;5049603;28;20060;-72
2022/09/25 13:55:47;;;;;;;6.43;2.08;;;17.60;75.50;;;;;;5056346;28;20045;-71